Cape Lambert — V7TC9 — position and weather

sailwx.info

Track history (hours):
 
Tides and Currents Weather Stations Pressure Air Temp Water Temp Dewpoint Dewpoint Depression Visibility Wind Speed Wind Dir Waves Ship Positions

Cape Lambert

Last reported at 2014-Aug-20 16:33 UTC. Time now 2014-Aug-20 16:37 UTC.
Position N 52°24' E 004°47'.

Length 290 m; draft 13.2 m.

Type: Cargo ship. MMSI: 538003781.

Date/timePositionNaut miles runAvg speedWind from/ knotsBaromVisibWave heightAir tempDewpointWater temp
2014-Aug-20 16:33N 52°24' E 004°47'0 0.0
2014-Aug-20 15:33N 52°24' E 004°47'0 0.0
2014-Aug-20 14:33N 52°24' E 004°47'0 0.0
2014-Aug-20 13:33N 52°24' E 004°47'0 0.0
2014-Aug-20 12:33N 52°24' E 004°47'4 3.8
2014-Aug-20 11:33N 52°27' E 004°42'3 3.5
2014-Aug-20 10:33N 52°28' E 004°36'1 1.0
2014-Aug-20 09:31N 52°28' E 004°35'0 0.0
2014-Aug-20 08:31N 52°28' E 004°35'0 0.0
2014-Aug-20 07:31N 52°28' E 004°35'0 0.0
2014-Aug-20 06:31N 52°28' E 004°35'0 0.0
2014-Aug-20 05:31N 52°28' E 004°35'0 0.0
2014-Aug-20 04:31N 52°28' E 004°35'0 0.0
2014-Aug-20 03:31N 52°28' E 004°35'0 0.0
2014-Aug-20 02:31N 52°28' E 004°35'0 0.0
2014-Aug-20 01:31N 52°28' E 004°35'0 0.0
2014-Aug-20 00:31N 52°28' E 004°35'0 0.0
2014-Aug-19 23:31N 52°28' E 004°35'0 0.0
2014-Aug-19 22:31N 52°28' E 004°35'0 0.0
2014-Aug-19 21:31N 52°28' E 004°35'0 0.0
2014-Aug-19 20:31N 52°28' E 004°35'0 0.0
2014-Aug-19 19:31N 52°28' E 004°35'0 0.0
2014-Aug-19 18:31N 52°28' E 004°35'0 0.0
2014-Aug-19 17:31N 52°28' E 004°35'0 0.0
2014-Aug-19 16:31N 52°28' E 004°35'0 0.0
2014-Aug-19 15:31N 52°28' E 004°35'0 0.0
2014-Aug-19 14:31N 52°28' E 004°35'0 0.0
2014-Aug-19 13:31N 52°28' E 004°35'0 0.0
2014-Aug-19 12:31N 52°28' E 004°35'0 0.0
2014-Aug-19 11:31N 52°28' E 004°35'0 0.0
2014-Aug-19 10:31N 52°28' E 004°35'0 0.0
2014-Aug-19 09:31N 52°28' E 004°35'0 0.0
2014-Aug-19 08:28N 52°28' E 004°35'0 0.0
2014-Aug-19 07:31N 52°28' E 004°35'0 0.0
2014-Aug-19 06:31N 52°28' E 004°35'0 0.0
2014-Aug-19 05:31N 52°28' E 004°35'0 0.0
2014-Aug-19 04:31N 52°28' E 004°35'0 0.0
2014-Aug-19 03:31N 52°28' E 004°35'0 0.0
2014-Aug-19 02:31N 52°28' E 004°35'0 0.0
2014-Aug-19 01:31N 52°28' E 004°35'0 0.0
2014-Aug-19 00:31N 52°28' E 004°35'0 0.0
2014-Aug-18 23:31N 52°28' E 004°35'0 0.0
2014-Aug-18 22:31N 52°28' E 004°35'0 0.0
2014-Aug-18 21:31N 52°28' E 004°35'0 0.0
2014-Aug-18 20:31N 52°28' E 004°35'0 0.0
2014-Aug-18 19:31N 52°28' E 004°35'0 0.0
2014-Aug-18 18:31N 52°28' E 004°35'0 0.0
2014-Aug-18 17:31N 52°28' E 004°35'0 0.0
2014-Aug-18 16:31N 52°28' E 004°35'0 0.0
2014-Aug-18 15:31N 52°28' E 004°35'0 0.0
2014-Aug-18 14:31N 52°28' E 004°35'0 0.0
2014-Aug-18 13:31N 52°28' E 004°35'0 0.0
2014-Aug-18 12:31N 52°28' E 004°35'0 0.0
2014-Aug-18 11:31N 52°28' E 004°35'0 0.0
2014-Aug-18 10:31N 52°28' E 004°35'0 0.0
2014-Aug-18 09:31N 52°28' E 004°35'0 0.0
2014-Aug-18 08:31N 52°28' E 004°35'0 0.0
2014-Aug-18 07:31N 52°28' E 004°35'0 0.0
2014-Aug-18 06:31N 52°28' E 004°35'0 0.0
2014-Aug-18 05:31N 52°28' E 004°35'0 0.0
2014-Aug-18 04:31N 52°28' E 004°35'0 0.0
2014-Aug-18 03:31N 52°28' E 004°35'0 0.0
2014-Aug-18 02:31N 52°28' E 004°35'0 0.0
2014-Aug-18 01:31N 52°28' E 004°35'0 0.0
2014-Aug-18 00:31N 52°28' E 004°35'0 0.0
2014-Aug-17 18:31N 52°28' E 004°35'0 0.0
2014-Aug-17 17:31N 52°28' E 004°35'0 0.0
2014-Aug-17 16:33N 52°28' E 004°35'0 0.0
2014-Aug-17 15:33N 52°28' E 004°35'5 5.1
2014-Aug-17 14:33N 52°29' E 004°26'10 9.8
2014-Aug-17 13:33N 52°30' E 004°11'1111.4
2014-Aug-17 12:33N 52°30' E 003°52'6 6.1
2014-Aug-17 11:33N 52°27' E 003°43'1 1.3
2014-Aug-17 10:33N 52°26' E 003°42'1 1.0
2014-Aug-17 09:33N 52°27' E 003°41'5 4.5
2014-Aug-17 08:29N 52°24' E 003°35'44 8.3
2014-Aug-17 03:13N 51°53' E 002°46'7 8.1
2014-Aug-17 02:18N 51°47' E 002°38'6 7.6
2014-Aug-17 01:34N 51°43' E 002°32'7 7.3
2014-Aug-17 00:33N 51°37' E 002°24'7 7.2
2014-Aug-16 23:33N 51°32' E 002°16'8 7.8
2014-Aug-16 22:33N 51°26' E 002°08'7 7.2
2014-Aug-16 21:33N 51°21' E 001°59'6 6.0
2014-Aug-16 20:33N 51°17' E 001°53'7 6.8
2014-Aug-16 19:33N 51°11' E 001°46'7 7.3
2014-Aug-16 18:33N 51°05' E 001°39'8 8.1
2014-Aug-16 17:34N 50°59' E 001°32'23 9.8
2014-Aug-16 15:11N 50°39' E 001°14'610.2
2014-Aug-16 14:33N 50°34' E 001°06'10 9.9
2014-Aug-16 13:33N 50°29' E 000°53'1110.6
2014-Aug-16 12:33N 50°26' E 000°37'1110.8
2014-Aug-16 11:33N 50°22' E 000°21'  
Track history (hours):
 
Tides and Currents Weather Stations Pressure Air Temp Water Temp Dewpoint Dewpoint Depression Visibility Wind Speed Wind Dir Waves Ship Positions

Cape Lambert

Last reported at 2014-Aug-20 16:33 UTC. Time now 2014-Aug-20 16:37 UTC.
Position N 52°24' E 004°47'.

Length 290 m; draft 13.2 m.

Type: Cargo ship. MMSI: 538003781.

Date/timePositionNaut miles runAvg speedWind from/ knotsBaromVisibWave heightAir tempDewpointWater temp
2014-Aug-20 16:33N 52°24' E 004°47'0 0.0
2014-Aug-20 15:33N 52°24' E 004°47'0 0.0
2014-Aug-20 14:33N 52°24' E 004°47'0 0.0
2014-Aug-20 13:33N 52°24' E 004°47'0 0.0
2014-Aug-20 12:33N 52°24' E 004°47'4 3.8
2014-Aug-20 11:33N 52°27' E 004°42'3 3.5
2014-Aug-20 10:33N 52°28' E 004°36'1 1.0
2014-Aug-20 09:31N 52°28' E 004°35'0 0.0
2014-Aug-20 08:31N 52°28' E 004°35'0 0.0
2014-Aug-20 07:31N 52°28' E 004°35'0 0.0
2014-Aug-20 06:31N 52°28' E 004°35'0 0.0
2014-Aug-20 05:31N 52°28' E 004°35'0 0.0
2014-Aug-20 04:31N 52°28' E 004°35'0 0.0
2014-Aug-20 03:31N 52°28' E 004°35'0 0.0
2014-Aug-20 02:31N 52°28' E 004°35'0 0.0
2014-Aug-20 01:31N 52°28' E 004°35'0 0.0
2014-Aug-20 00:31N 52°28' E 004°35'0 0.0
2014-Aug-19 23:31N 52°28' E 004°35'0 0.0
2014-Aug-19 22:31N 52°28' E 004°35'0 0.0
2014-Aug-19 21:31N 52°28' E 004°35'0 0.0
2014-Aug-19 20:31N 52°28' E 004°35'0 0.0
2014-Aug-19 19:31N 52°28' E 004°35'0 0.0
2014-Aug-19 18:31N 52°28' E 004°35'0 0.0
2014-Aug-19 17:31N 52°28' E 004°35'0 0.0
2014-Aug-19 16:31N 52°28' E 004°35'0 0.0
2014-Aug-19 15:31N 52°28' E 004°35'0 0.0
2014-Aug-19 14:31N 52°28' E 004°35'0 0.0
2014-Aug-19 13:31N 52°28' E 004°35'0 0.0
2014-Aug-19 12:31N 52°28' E 004°35'0 0.0
2014-Aug-19 11:31N 52°28' E 004°35'0 0.0
2014-Aug-19 10:31N 52°28' E 004°35'0 0.0
2014-Aug-19 09:31N 52°28' E 004°35'0 0.0
2014-Aug-19 08:28N 52°28' E 004°35'0 0.0
2014-Aug-19 07:31N 52°28' E 004°35'0 0.0
2014-Aug-19 06:31N 52°28' E 004°35'0 0.0
2014-Aug-19 05:31N 52°28' E 004°35'0 0.0
2014-Aug-19 04:31N 52°28' E 004°35'0 0.0
2014-Aug-19 03:31N 52°28' E 004°35'0 0.0
2014-Aug-19 02:31N 52°28' E 004°35'0 0.0
2014-Aug-19 01:31N 52°28' E 004°35'0 0.0
2014-Aug-19 00:31N 52°28' E 004°35'0 0.0
2014-Aug-18 23:31N 52°28' E 004°35'0 0.0
2014-Aug-18 22:31N 52°28' E 004°35'0 0.0
2014-Aug-18 21:31N 52°28' E 004°35'0 0.0
2014-Aug-18 20:31N 52°28' E 004°35'0 0.0
2014-Aug-18 19:31N 52°28' E 004°35'0 0.0
2014-Aug-18 18:31N 52°28' E 004°35'0 0.0
2014-Aug-18 17:31N 52°28' E 004°35'0 0.0
2014-Aug-18 16:31N 52°28' E 004°35'0 0.0
2014-Aug-18 15:31N 52°28' E 004°35'0 0.0
2014-Aug-18 14:31N 52°28' E 004°35'0 0.0
2014-Aug-18 13:31N 52°28' E 004°35'0 0.0
2014-Aug-18 12:31N 52°28' E 004°35'0 0.0
2014-Aug-18 11:31N 52°28' E 004°35'0 0.0
2014-Aug-18 10:31N 52°28' E 004°35'0 0.0
2014-Aug-18 09:31N 52°28' E 004°35'0 0.0
2014-Aug-18 08:31N 52°28' E 004°35'0 0.0
2014-Aug-18 07:31N 52°28' E 004°35'0 0.0
2014-Aug-18 06:31N 52°28' E 004°35'0 0.0
2014-Aug-18 05:31N 52°28' E 004°35'0 0.0
2014-Aug-18 04:31N 52°28' E 004°35'0 0.0
2014-Aug-18 03:31N 52°28' E 004°35'0 0.0
2014-Aug-18 02:31N 52°28' E 004°35'0 0.0
2014-Aug-18 01:31N 52°28' E 004°35'0 0.0
2014-Aug-18 00:31N 52°28' E 004°35'0 0.0
2014-Aug-17 18:31N 52°28' E 004°35'0 0.0
2014-Aug-17 17:31N 52°28' E 004°35'0 0.0
2014-Aug-17 16:33N 52°28' E 004°35'0 0.0
2014-Aug-17 15:33N 52°28' E 004°35'5 5.1
2014-Aug-17 14:33N 52°29' E 004°26'10 9.8
2014-Aug-17 13:33N 52°30' E 004°11'1111.4
2014-Aug-17 12:33N 52°30' E 003°52'6 6.1
2014-Aug-17 11:33N 52°27' E 003°43'1 1.3
2014-Aug-17 10:33N 52°26' E 003°42'1 1.0
2014-Aug-17 09:33N 52°27' E 003°41'5 4.5
2014-Aug-17 08:29N 52°24' E 003°35'44 8.3
2014-Aug-17 03:13N 51°53' E 002°46'7 8.1
2014-Aug-17 02:18N 51°47' E 002°38'6 7.6
2014-Aug-17 01:34N 51°43' E 002°32'7 7.3
2014-Aug-17 00:33N 51°37' E 002°24'7 7.2
2014-Aug-16 23:33N 51°32' E 002°16'8 7.8
2014-Aug-16 22:33N 51°26' E 002°08'7 7.2
2014-Aug-16 21:33N 51°21' E 001°59'6 6.0
2014-Aug-16 20:33N 51°17' E 001°53'7 6.8
2014-Aug-16 19:33N 51°11' E 001°46'7 7.3
2014-Aug-16 18:33N 51°05' E 001°39'8 8.1
2014-Aug-16 17:34N 50°59' E 001°32'23 9.8
2014-Aug-16 15:11N 50°39' E 001°14'610.2
2014-Aug-16 14:33N 50°34' E 001°06'10 9.9
2014-Aug-16 13:33N 50°29' E 000°53'1110.6
2014-Aug-16 12:33N 50°26' E 000°37'1110.8
2014-Aug-16 11:33N 50°22' E 000°21'  

Dump ship's entire track history